createdAt,value
2019-02-18T00:02:28.011Z,9.57
2019-02-18T00:04:58.036Z,11.30
2019-02-18T00:07:28.018Z,10.70
2019-02-18T00:09:58.037Z,11.37
2019-02-18T00:12:29.121Z,10.23
2019-02-18T00:14:59.207Z,10.53
2019-02-18T00:17:29.280Z,11.10
2019-02-18T00:19:59.336Z,10.30
2019-02-18T00:22:29.389Z,11.03
2019-02-18T00:24:59.455Z,11.33
2019-02-18T00:27:29.524Z,11.23
2019-02-18T00:29:59.571Z,10.40
2019-02-18T00:32:29.705Z,10.67
2019-02-18T00:34:59.696Z,10.10
2019-02-18T00:37:29.669Z,9.70
2019-02-18T00:39:59.639Z,11.13
2019-02-18T00:42:29.680Z,10.93
2019-02-18T00:45:01.263Z,10.27
2019-02-18T00:47:32.587Z,9.53
2019-02-18T00:50:02.616Z,9.00
2019-02-18T00:52:32.593Z,10.93
2019-02-18T00:55:02.617Z,9.43
2019-02-18T00:57:32.575Z,10.07
2019-02-18T01:00:02.666Z,10.50
2019-02-18T01:02:32.991Z,10.40
2019-02-18T01:05:03.899Z,9.60
2019-02-18T01:07:35.131Z,9.27
2019-02-18T01:10:05.784Z,8.77
2019-02-18T01:12:35.816Z,8.30
2019-02-18T01:15:06.908Z,8.97
2019-02-18T01:17:36.995Z,9.30
2019-02-18T01:20:07.757Z,9.20
2019-02-18T01:22:37.798Z,9.40
2019-02-18T01:25:08.888Z,8.97
2019-02-18T01:27:38.973Z,9.73
2019-02-18T01:30:10.612Z,7.87
2019-02-18T01:32:40.816Z,9.60
2019-02-18T01:35:11.899Z,8.67
2019-02-18T01:37:45.881Z,9.37
2019-02-18T01:40:14.022Z,7.30
2019-02-18T01:42:44.097Z,8.70
2019-02-18T01:45:14.259Z,8.83
2019-02-18T01:47:44.236Z,8.57
2019-02-18T01:50:14.761Z,9.13
2019-02-18T01:52:44.805Z,9.47
2019-02-18T01:55:14.823Z,9.63
2019-02-18T01:57:44.801Z,8.60
2019-02-18T02:00:15.185Z,8.17
2019-02-18T02:02:45.331Z,8.83
2019-02-18T02:05:15.710Z,7.17
2019-02-18T02:07:55.433Z,7.50
2019-02-18T02:10:17.550Z,6.03
2019-02-18T02:12:47.625Z,8.30
2019-02-18T02:15:19.324Z,9.47
2019-02-18T02:17:49.305Z,9.03
2019-02-18T02:20:19.425Z,9.60
2019-02-18T02:22:49.449Z,8.17
2019-02-18T02:25:19.454Z,7.70
2019-02-18T02:28:08.203Z,7.40
2019-02-18T02:30:38.214Z,9.33
2019-02-18T02:33:08.313Z,7.63
2019-02-18T02:35:38.322Z,9.00
2019-02-18T02:38:09.401Z,8.37
2019-02-18T02:40:39.375Z,7.83
2019-02-18T02:43:09.426Z,9.73
2019-02-18T02:45:39.496Z,8.57
2019-02-18T02:48:09.505Z,9.23
2019-02-18T02:50:39.511Z,9.60
2019-02-18T02:53:09.486Z,8.70
2019-02-18T02:55:39.719Z,8.60
2019-02-18T02:58:09.859Z,8.30
2019-02-18T03:00:39.806Z,8.57
2019-02-18T03:03:10.662Z,7.93
2019-02-18T03:05:40.618Z,7.50
2019-02-18T03:08:19.967Z,7.00
2019-02-18T03:10:42.309Z,8.50
2019-02-18T03:13:12.263Z,9.07
2019-02-18T03:15:42.233Z,7.97
2019-02-18T03:18:12.183Z,8.40
2019-02-18T03:20:42.268Z,9.30
2019-02-18T03:23:12.367Z,7.10
2019-02-18T03:25:43.011Z,8.43
2019-02-18T03:28:25.413Z,7.27
2019-02-18T03:31:00.329Z,7.77
2019-02-18T03:33:32.620Z,8.77
2019-02-18T03:36:02.601Z,7.83
2019-02-18T03:38:33.053Z,9.47
2019-02-18T03:41:03.835Z,8.03
2019-02-18T03:43:34.057Z,7.73
2019-02-18T03:46:04.410Z,8.63
2019-02-18T03:48:34.369Z,8.20
2019-02-18T03:51:04.453Z,9.13
2019-02-18T03:53:34.410Z,9.47
2019-02-18T03:56:04.627Z,9.03
2019-02-18T03:58:34.694Z,7.20
2019-02-18T04:01:04.738Z,7.27
2019-02-18T04:03:34.802Z,7.43
2019-02-18T04:06:04.741Z,9.00
2019-02-18T04:08:42.283Z,9.40
2019-02-18T04:11:06.406Z,8.90
2019-02-18T04:13:36.374Z,8.00
2019-02-18T04:16:06.342Z,7.97
2019-02-18T04:18:36.304Z,8.63
2019-02-18T04:21:06.414Z,7.87
2019-02-18T04:23:36.413Z,9.20
2019-02-18T04:26:06.604Z,8.67
2019-02-18T04:28:36.688Z,8.07
2019-02-18T04:31:06.744Z,8.83
2019-02-18T04:33:36.801Z,8.57
2019-02-18T04:36:06.761Z,8.43
2019-02-18T04:38:36.746Z,9.10
2019-02-18T04:41:07.940Z,8.93
2019-02-18T04:43:37.925Z,8.83
2019-02-18T04:46:07.883Z,8.73
2019-02-18T04:48:37.852Z,9.67
2019-02-18T04:51:07.860Z,7.20
2019-02-18T04:53:37.881Z,8.23
2019-02-18T04:56:07.965Z,8.07
2019-02-18T04:58:38.025Z,8.20
2019-02-18T05:01:07.996Z,7.30
2019-02-18T05:03:37.965Z,8.40
2019-02-18T05:06:07.903Z,8.80
2019-02-18T05:08:37.877Z,8.13
2019-02-18T05:11:07.884Z,6.80
2019-02-18T05:13:37.837Z,8.17
2019-02-18T05:16:07.794Z,6.17
2019-02-18T05:18:37.745Z,8.00
2019-02-18T05:21:07.743Z,7.97
2019-02-18T05:23:37.852Z,7.53
2019-02-18T05:26:07.892Z,7.57
2019-02-18T05:28:37.857Z,7.10
2019-02-18T05:31:08.876Z,9.03
2019-02-18T05:33:38.878Z,6.20
2019-02-18T05:36:08.893Z,6.50
2019-02-18T05:38:38.874Z,8.13
2019-02-18T05:41:08.999Z,8.53
2019-02-18T05:43:39.045Z,8.03
2019-02-18T05:46:09.062Z,8.50
2019-02-18T05:48:39.021Z,7.07
2019-02-18T05:51:10.131Z,5.87
2019-02-18T05:53:40.192Z,8.37
2019-02-18T05:56:10.173Z,6.33
2019-02-18T05:58:40.231Z,5.70
2019-02-18T06:01:10.206Z,8.30
2019-02-18T06:03:40.193Z,6.53
2019-02-18T06:06:10.222Z,5.83
2019-02-18T06:08:40.194Z,8.73
2019-02-18T06:11:10.212Z,5.87
2019-02-18T06:13:42.246Z,5.43
2019-02-18T06:16:12.196Z,5.70
2019-02-18T06:18:42.181Z,5.93
2019-02-18T06:21:13.198Z,6.00
2019-02-18T06:23:43.254Z,6.33
2019-02-18T06:26:13.218Z,6.67
2019-02-18T06:28:43.174Z,5.17
2019-02-18T06:31:13.127Z,5.83
2019-02-18T06:33:43.242Z,5.97
2019-02-18T06:36:13.842Z,5.27
2019-02-18T06:38:43.831Z,6.03
2019-02-18T06:41:13.793Z,5.90
2019-02-18T06:43:43.770Z,5.73
2019-02-18T06:46:30.110Z,5.43
2019-02-18T06:49:08.249Z,8.13
2019-02-18T06:51:38.192Z,5.40
2019-02-18T06:54:08.160Z,8.53
2019-02-18T06:57:06.698Z,7.87
2019-02-18T06:59:54.364Z,7.57
2019-02-18T07:02:30.973Z,6.47
2019-02-18T07:05:22.460Z,7.47
2019-02-18T07:08:23.870Z,5.73
2019-02-18T07:11:16.015Z,5.77
2019-02-18T07:13:46.110Z,5.60
2019-02-18T07:16:17.217Z,6.83
2019-02-18T07:18:47.286Z,9.10
2019-02-18T07:21:17.363Z,7.67
2019-02-18T07:23:47.414Z,6.67
2019-02-18T07:26:17.486Z,7.63
2019-02-18T07:28:47.493Z,8.23
2019-02-18T07:31:17.502Z,6.40
2019-02-18T07:33:47.588Z,9.20
2019-02-18T07:36:25.861Z,9.70
2019-02-18T07:38:55.974Z,8.87
2019-02-18T07:41:26.960Z,8.63
2019-02-18T07:43:57.001Z,7.87
2019-02-18T07:46:26.961Z,8.77
2019-02-18T07:48:56.936Z,7.97
2019-02-18T07:51:26.989Z,9.93
2019-02-18T07:53:57.150Z,8.73
2019-02-18T07:56:27.108Z,9.23
2019-02-18T07:58:57.150Z,9.70
2019-02-18T08:01:27.178Z,9.03
2019-02-18T08:03:57.142Z,9.03
2019-02-18T08:06:27.176Z,9.80
2019-02-18T08:08:57.152Z,8.93
2019-02-18T08:11:27.187Z,9.83
2019-02-18T08:13:57.173Z,9.27
2019-02-18T08:16:27.128Z,9.87
2019-02-18T08:18:57.116Z,9.80
2019-02-18T08:21:27.367Z,9.23
2019-02-18T08:24:00.073Z,8.77
2019-02-18T08:26:29.472Z,9.13
2019-02-18T08:28:59.484Z,8.37
2019-02-18T08:31:29.510Z,9.33
2019-02-18T08:33:59.570Z,9.00
2019-02-18T08:36:29.554Z,9.03
2019-02-18T08:38:59.546Z,9.07
2019-02-18T08:41:29.618Z,9.33
2019-02-18T08:43:59.650Z,9.13
2019-02-18T08:46:29.729Z,10.17
2019-02-18T08:48:59.720Z,9.17
2019-02-18T08:51:29.775Z,9.37
2019-02-18T08:53:59.853Z,9.67
2019-02-18T08:56:29.938Z,10.43
2019-02-18T08:58:59.904Z,9.90
2019-02-18T09:01:29.890Z,10.40
2019-02-18T09:03:59.854Z,10.87
2019-02-18T09:06:29.830Z,10.17
2019-02-18T09:08:59.900Z,10.17
2019-02-18T09:11:29.998Z,9.47
2019-02-18T09:14:02.053Z,10.27
2019-02-18T09:16:32.591Z,9.37
2019-02-18T09:19:02.897Z,10.37
2019-02-18T09:21:34.093Z,10.40
2019-02-18T09:24:12.591Z,8.87
2019-02-18T09:29:10.486Z,10.43
2019-02-18T09:31:42.787Z,9.57
2019-02-18T09:34:12.251Z,10.67
2019-02-18T09:36:42.628Z,10.80
2019-02-18T09:39:15.122Z,8.97
2019-02-18T09:41:45.327Z,9.40
2019-02-18T09:44:15.605Z,8.83
2019-02-18T09:46:45.967Z,9.77
2019-02-18T09:49:15.955Z,8.67
2019-02-18T09:51:46.016Z,8.63
2019-02-18T09:54:16.010Z,8.97
2019-02-18T09:56:46.095Z,8.30
2019-02-18T09:59:16.219Z,9.43
2019-02-18T10:01:46.878Z,8.13
2019-02-18T10:04:16.880Z,8.23
2019-02-18T10:06:47.066Z,9.70
2019-02-18T10:09:17.410Z,9.40
2019-02-18T10:11:47.584Z,8.37
2019-02-18T10:14:17.563Z,8.47
2019-02-18T10:16:47.655Z,8.60
2019-02-18T10:19:17.813Z,9.07
2019-02-18T10:21:48.246Z,9.33
2019-02-18T10:24:18.392Z,8.87
2019-02-18T10:26:50.845Z,8.73
2019-02-18T10:29:20.975Z,9.50
2019-02-18T10:31:51.057Z,8.43
2019-02-18T10:34:21.067Z,8.67
2019-02-18T10:36:51.063Z,8.63
2019-02-18T10:39:21.098Z,8.43
2019-02-18T10:41:51.133Z,7.03
2019-02-18T10:44:21.120Z,7.80
2019-02-18T10:46:51.084Z,7.17
2019-02-18T10:49:22.140Z,7.70
2019-02-18T10:51:54.141Z,7.87
2019-02-18T10:54:25.549Z,6.97
2019-02-18T10:56:55.808Z,7.13
2019-02-18T10:59:26.142Z,7.73
2019-02-18T11:01:56.441Z,7.57
2019-02-18T11:04:26.530Z,7.20
2019-02-18T11:06:56.492Z,7.53
2019-02-18T11:09:27.928Z,7.93
2019-02-18T11:11:57.970Z,9.20
2019-02-18T11:14:28.023Z,7.53
2019-02-18T11:16:57.966Z,8.30
2019-02-18T11:19:27.929Z,7.33
2019-02-18T11:21:57.907Z,7.57
2019-02-18T11:24:28.002Z,7.27
2019-02-18T11:26:58.307Z,7.93
2019-02-18T11:29:28.621Z,12.10
2019-02-18T11:31:58.646Z,8.00
2019-02-18T11:34:28.707Z,7.20
2019-02-18T11:36:58.786Z,8.50
2019-02-18T11:39:29.306Z,7.97
2019-02-18T11:41:59.489Z,7.47
2019-02-18T11:44:29.497Z,8.57
2019-02-18T11:46:59.499Z,7.87
2019-02-18T11:49:29.463Z,8.87
2019-02-18T11:52:00.193Z,8.23
2019-02-18T11:54:30.329Z,8.40
2019-02-18T11:57:00.351Z,8.90
2019-02-18T11:59:30.454Z,9.17
2019-02-18T12:02:00.717Z,8.03
2019-02-18T12:04:31.227Z,8.10
2019-02-18T12:07:01.320Z,8.87
2019-02-18T12:09:31.786Z,8.67
2019-02-18T12:12:01.926Z,8.70
2019-02-18T12:14:31.970Z,8.93
2019-02-18T12:17:02.228Z,9.30
2019-02-18T12:19:32.708Z,8.57
2019-02-18T12:22:02.881Z,7.90
2019-02-18T12:24:33.245Z,8.63
2019-02-18T12:27:04.268Z,8.83
2019-02-18T12:29:34.233Z,9.43
2019-02-18T12:32:04.737Z,8.43
2019-02-18T12:34:35.157Z,7.67
2019-02-18T12:37:05.287Z,8.87
2019-02-18T12:39:35.626Z,8.93
2019-02-18T12:42:05.875Z,9.10
2019-02-18T12:44:36.271Z,8.53
2019-02-18T12:47:06.566Z,9.80
2019-02-18T12:49:36.581Z,8.70
2019-02-18T12:52:06.831Z,9.13
2019-02-18T12:54:36.786Z,8.20
2019-02-18T12:57:06.838Z,9.33
2019-02-18T12:59:36.942Z,8.77
2019-02-18T13:02:07.017Z,8.20
2019-02-18T13:04:37.230Z,8.13
2019-02-18T13:07:07.337Z,8.33
2019-02-18T13:09:37.473Z,8.10
2019-02-18T13:12:07.871Z,7.93
2019-02-18T13:14:40.520Z,8.53
2019-02-18T13:17:10.721Z,7.93
2019-02-18T13:19:41.596Z,9.03
2019-02-18T13:22:11.607Z,8.90
2019-02-18T13:24:41.768Z,8.23
2019-02-18T13:27:11.822Z,8.50
2019-02-18T13:29:41.921Z,8.00
2019-02-18T13:32:12.097Z,8.33
2019-02-18T13:34:42.515Z,7.70
2019-02-18T13:37:12.700Z,8.30
2019-02-18T13:39:43.013Z,9.77
2019-02-18T13:42:13.310Z,8.30
2019-02-18T13:44:43.617Z,8.60
2019-02-18T13:47:13.823Z,8.07
2019-02-18T13:49:44.306Z,9.13
2019-02-18T13:52:14.368Z,8.23
2019-02-18T13:54:44.312Z,8.43
2019-02-18T13:57:14.263Z,7.57
2019-02-18T13:59:45.226Z,8.37
2019-02-18T14:02:15.737Z,8.17
2019-02-18T14:04:45.811Z,9.10
2019-02-18T14:07:15.797Z,7.80
2019-02-18T14:09:45.785Z,8.30
2019-02-18T14:12:16.474Z,7.67
2019-02-18T14:14:46.702Z,7.93
2019-02-18T14:17:17.434Z,8.27
2019-02-18T14:19:47.501Z,8.67
2019-02-18T14:22:17.688Z,8.53
2019-02-18T14:24:47.624Z,8.27
2019-02-18T14:27:18.048Z,9.20
2019-02-18T14:29:48.730Z,9.40
2019-02-18T14:32:19.031Z,7.67
2019-02-18T14:34:49.170Z,8.53
2019-02-18T14:37:19.374Z,8.43
2019-02-18T14:39:50.176Z,8.80
2019-02-18T14:42:24.492Z,8.40
2019-02-18T14:44:52.068Z,8.37
2019-02-18T14:47:24.185Z,9.07
2019-02-18T14:49:53.990Z,8.93
2019-02-18T14:52:24.183Z,8.47
2019-02-18T14:54:55.263Z,8.07
2019-02-18T14:57:25.663Z,10.00
2019-02-18T14:59:56.728Z,10.20
2019-02-18T15:02:28.334Z,9.20
2019-02-18T15:04:58.496Z,9.70
2019-02-18T15:07:28.482Z,9.43
2019-02-18T15:09:58.822Z,7.90
2019-02-18T15:12:33.114Z,8.97
2019-02-18T15:15:00.627Z,8.20
2019-02-18T15:17:30.601Z,9.13
2019-02-18T15:20:00.590Z,8.77
2019-02-18T15:22:30.635Z,8.00
2019-02-18T15:25:01.017Z,8.43
2019-02-18T15:27:31.138Z,8.53
2019-02-18T15:30:01.167Z,9.00
2019-02-18T15:32:31.301Z,8.07
2019-02-18T15:35:01.309Z,8.00
2019-02-18T15:37:31.985Z,10.00
2019-02-18T15:40:04.904Z,11.30
2019-02-18T15:42:42.229Z,10.00
2019-02-18T15:45:08.787Z,9.03
2019-02-18T15:47:38.948Z,8.70
2019-02-18T15:50:09.574Z,9.53
2019-02-18T15:52:39.734Z,10.90
2019-02-18T15:55:10.329Z,9.40
2019-02-18T15:57:40.407Z,9.30
2019-02-18T16:00:12.398Z,9.63
2019-02-18T16:02:42.746Z,8.60
2019-02-18T16:05:13.998Z,9.50
2019-02-18T16:07:44.670Z,8.73
2019-02-18T16:10:14.929Z,9.40
2019-02-18T16:12:50.717Z,8.97
2019-02-18T16:15:17.115Z,9.33
2019-02-18T16:17:47.794Z,8.70
2019-02-18T16:20:18.097Z,8.50
2019-02-18T16:22:48.225Z,8.30
2019-02-18T16:25:19.096Z,9.30
2019-02-18T16:27:49.076Z,9.67
2019-02-18T16:30:20.384Z,8.73
2019-02-18T16:32:50.406Z,9.43
2019-02-18T16:35:20.434Z,9.90
2019-02-18T16:37:50.504Z,8.90
2019-02-18T16:40:20.839Z,9.77
2019-02-18T16:42:58.982Z,8.87
2019-02-18T16:45:22.975Z,10.50
2019-02-18T16:47:52.995Z,9.97
2019-02-18T16:50:23.006Z,9.85
2019-02-18T16:52:53.022Z,8.57
2019-02-18T16:55:23.071Z,9.37
2019-02-18T17:00:33.902Z,8.80
2019-02-18T17:03:04.395Z,9.23
2019-02-18T17:05:34.574Z,24.90
2019-02-18T17:08:04.976Z,25.27
2019-02-18T17:10:35.351Z,8.67
2019-02-18T17:13:08.279Z,8.80
2019-02-18T17:15:37.178Z,8.87
2019-02-18T17:18:08.217Z,8.80
2019-02-18T17:20:38.372Z,8.60
2019-02-18T17:23:08.817Z,9.20
2019-02-18T17:25:38.974Z,10.00
2019-02-18T17:28:08.922Z,8.97
2019-02-18T17:30:38.962Z,8.97
2019-02-18T17:33:08.926Z,9.07
2019-02-18T17:35:40.359Z,7.93
2019-02-18T17:38:10.544Z,7.93
2019-02-18T17:40:40.529Z,9.03
2019-02-18T17:43:16.184Z,9.37
2019-02-18T17:45:42.231Z,9.87
2019-02-18T17:48:12.354Z,9.57
2019-02-18T17:50:42.426Z,9.23
2019-02-18T17:53:12.363Z,9.73
2019-02-18T17:55:42.425Z,10.10
2019-02-18T17:58:12.477Z,9.67
2019-02-18T18:00:44.814Z,9.27
2019-02-18T18:03:14.897Z,28.90
2019-02-18T18:05:45.355Z,12.03
2019-02-18T18:08:15.377Z,10.20
2019-02-18T18:10:46.405Z,9.03
2019-02-18T18:13:24.771Z,9.83
2019-02-18T18:15:48.310Z,9.67
2019-02-18T18:18:18.841Z,6.97
2019-02-18T18:20:48.824Z,9.90
2019-02-18T18:23:18.884Z,11.07
2019-02-18T18:25:49.372Z,11.73
2019-02-18T18:28:19.441Z,10.17
2019-02-18T18:30:49.511Z,10.70
2019-02-18T18:33:19.934Z,8.45
2019-02-18T18:35:49.981Z,10.27
2019-02-18T18:38:19.966Z,8.87
2019-02-18T18:40:50.018Z,10.50
2019-02-18T18:43:20.155Z,12.30
2019-02-18T18:45:50.196Z,11.37
2019-02-18T18:48:20.315Z,11.47
2019-02-18T18:50:50.304Z,11.80
2019-02-18T18:53:20.403Z,10.90
2019-02-18T18:55:50.380Z,10.10
2019-02-18T18:58:20.407Z,15.00
2019-02-18T19:00:50.441Z,11.20
2019-02-18T19:03:20.439Z,10.10
2019-02-18T19:05:50.509Z,7.97
2019-02-18T19:08:20.684Z,10.33
2019-02-18T19:10:50.840Z,11.60
2019-02-18T19:13:21.911Z,11.50
2019-02-18T19:15:51.950Z,10.50
2019-02-18T19:18:21.941Z,11.67
2019-02-18T19:20:51.970Z,11.27
2019-02-18T19:23:22.141Z,11.50
2019-02-18T19:25:52.100Z,12.30
2019-02-18T19:28:22.360Z,12.47
2019-02-18T19:30:52.371Z,12.67
2019-02-18T19:33:22.408Z,11.47
2019-02-18T19:35:52.391Z,11.60
2019-02-18T19:38:22.429Z,13.07
2019-02-18T19:40:53.039Z,13.17
2019-02-18T19:43:23.343Z,13.13
2019-02-18T19:45:53.371Z,12.57
2019-02-18T19:48:23.358Z,14.07
2019-02-18T19:50:53.676Z,12.97
2019-02-18T19:53:24.264Z,14.23
2019-02-18T19:55:54.322Z,15.07
2019-02-18T19:58:24.351Z,14.90
2019-02-18T20:00:54.393Z,17.07
2019-02-18T20:03:24.525Z,14.47
2019-02-18T20:05:54.500Z,11.50
2019-02-18T20:08:24.546Z,19.73
2019-02-18T20:10:54.594Z,21.93
2019-02-18T20:13:24.559Z,17.47
2019-02-18T20:15:54.669Z,16.20
2019-02-18T20:18:24.655Z,15.67
2019-02-18T20:20:55.040Z,16.90
2019-02-18T20:23:25.139Z,18.77
2019-02-18T20:25:55.126Z,18.17
2019-02-18T20:28:25.435Z,17.13
2019-02-18T20:30:55.739Z,18.90
2019-02-18T20:33:25.711Z,18.83
2019-02-18T20:35:56.949Z,16.67
2019-02-18T20:38:26.917Z,15.97
2019-02-18T20:40:56.950Z,16.83
2019-02-18T20:43:26.918Z,16.03
2019-02-18T20:45:56.896Z,15.00
2019-02-18T20:48:27.234Z,14.93
2019-02-18T20:50:57.232Z,15.07
2019-02-18T20:53:27.275Z,15.60
2019-02-18T20:55:58.239Z,15.80
2019-02-18T20:58:29.237Z,17.03
2019-02-18T21:00:59.250Z,15.53
2019-02-18T21:03:29.371Z,12.33
2019-02-18T21:05:59.347Z,14.03
2019-02-18T21:08:29.310Z,14.67
2019-02-18T21:10:59.298Z,14.37
2019-02-18T21:13:29.326Z,12.63
2019-02-18T21:15:59.554Z,14.57
2019-02-18T21:18:30.214Z,14.20
2019-02-18T21:21:00.261Z,14.17
2019-02-18T21:23:30.291Z,14.43
2019-02-18T21:26:00.304Z,14.23
2019-02-18T21:28:30.307Z,12.57
2019-02-18T21:31:00.350Z,11.13
2019-02-18T21:33:30.348Z,15.40
2019-02-18T21:36:00.320Z,15.60
2019-02-18T21:38:30.302Z,16.13
2019-02-18T21:41:00.261Z,15.27
2019-02-18T21:43:30.558Z,17.17
2019-02-18T21:46:00.615Z,11.57
2019-02-18T21:48:30.584Z,16.30
2019-02-18T21:51:00.561Z,14.83
2019-02-18T21:53:30.577Z,16.47
2019-02-18T21:56:00.618Z,16.63
2019-02-18T21:58:30.680Z,16.37
2019-02-18T22:01:00.771Z,10.10
2019-02-18T22:03:30.810Z,15.03
2019-02-18T22:06:00.793Z,16.60
2019-02-18T22:08:30.804Z,15.70
2019-02-18T22:11:01.225Z,16.27
2019-02-18T22:13:31.223Z,13.87
2019-02-18T22:16:01.206Z,14.87
2019-02-18T22:18:31.296Z,17.20
2019-02-18T22:21:01.349Z,16.03
2019-02-18T22:23:31.707Z,16.70
2019-02-18T22:26:02.463Z,11.67
2019-02-18T22:28:32.841Z,14.67
2019-02-18T22:31:03.139Z,16.03
2019-02-18T22:33:33.441Z,15.97
2019-02-18T22:36:04.651Z,13.83
2019-02-18T22:38:34.660Z,9.40
2019-02-18T22:41:04.997Z,12.97
2019-02-18T22:43:36.754Z,8.93
2019-02-18T22:46:07.042Z,17.13
2019-02-18T22:48:38.693Z,13.60
2019-02-18T22:51:08.777Z,12.30
2019-02-18T22:53:38.756Z,13.93
2019-02-18T22:56:09.129Z,19.10
2019-02-18T22:58:39.198Z,19.50
2019-02-18T23:04:10.163Z,19.13
2019-02-18T23:06:41.863Z,13.00
2019-02-18T23:09:14.168Z,14.30
2019-02-18T23:11:44.202Z,18.73
2019-02-18T23:14:15.044Z,19.30
2019-02-18T23:16:45.490Z,18.97
2019-02-18T23:19:15.546Z,16.63
2019-02-18T23:21:45.808Z,19.80
2019-02-18T23:24:15.904Z,17.77
2019-02-18T23:26:45.878Z,18.27
2019-02-18T23:29:16.129Z,20.47
2019-02-18T23:31:46.554Z,21.63
2019-02-18T23:34:16.611Z,12.27
2019-02-18T23:36:46.633Z,18.77
2019-02-18T23:39:16.692Z,20.33
2019-02-18T23:41:46.950Z,21.60
2019-02-18T23:44:16.961Z,20.97
2019-02-18T23:46:47.012Z,20.37
2019-02-18T23:49:17.135Z,21.17
2019-02-18T23:51:47.136Z,14.40
2019-02-18T23:54:17.122Z,20.00
2019-02-18T23:56:47.073Z,21.17
2019-02-18T23:59:17.162Z,20.47
